createdAt,value
2022-12-12T00:02:17.827Z,84.80
2022-12-12T00:04:44.943Z,84.50
2022-12-12T00:07:11.924Z,84.81
2022-12-12T00:09:39.144Z,84.86
2022-12-12T00:12:06.671Z,85.90
2022-12-12T00:14:33.931Z,86.18
2022-12-12T00:17:01.155Z,86.05
2022-12-12T00:19:28.414Z,86.54
2022-12-12T00:21:55.372Z,86.74
2022-12-12T00:24:22.386Z,86.06
2022-12-12T00:26:49.487Z,86.21
2022-12-12T00:29:16.362Z,86.25
2022-12-12T00:31:43.397Z,85.78
2022-12-12T00:34:10.442Z,85.74
2022-12-12T00:36:37.465Z,85.86
2022-12-12T00:39:05.008Z,86.33
2022-12-12T00:41:32.158Z,86.45
2022-12-12T00:43:59.354Z,86.55
2022-12-12T00:46:26.620Z,86.73
2022-12-12T00:48:56.189Z,86.45
2022-12-12T00:51:26.817Z,85.91
2022-12-12T00:53:56.516Z,86.02
2022-12-12T00:56:25.117Z,86.29
2022-12-12T00:58:52.326Z,86.41
2022-12-12T01:01:26.857Z,86.59
2022-12-12T01:03:54.501Z,86.72
2022-12-12T01:06:21.996Z,86.99
2022-12-12T01:08:49.473Z,87.07
2022-12-12T01:11:17.711Z,87.32
2022-12-12T01:13:46.088Z,87.32
2022-12-12T01:16:13.301Z,87.64
2022-12-12T01:18:41.416Z,87.85
2022-12-12T01:21:14.034Z,87.88
2022-12-12T01:23:42.084Z,87.54
2022-12-12T01:26:14.554Z,87.77
2022-12-12T01:28:42.837Z,88.19
2022-12-12T01:31:10.362Z,88.37
2022-12-12T01:33:37.737Z,88.33
2022-12-12T01:36:05.855Z,88.36
2022-12-12T01:38:33.012Z,88.14
2022-12-12T01:40:59.937Z,88.25
2022-12-12T01:43:28.936Z,88.26
2022-12-12T01:46:00.062Z,88.06
2022-12-12T01:48:32.136Z,88.40
2022-12-12T01:51:02.252Z,88.10
2022-12-12T01:53:31.687Z,88.19
2022-12-12T01:55:59.066Z,88.33
2022-12-12T01:58:26.313Z,88.32
2022-12-12T02:00:53.384Z,88.24
2022-12-12T02:03:20.298Z,88.37
2022-12-12T02:05:52.443Z,88.35
2022-12-12T02:08:23.356Z,88.57
2022-12-12T02:10:51.020Z,88.81
2022-12-12T02:13:27.281Z,88.79
2022-12-12T02:16:18.742Z,88.90
2022-12-12T02:19:01.270Z,88.58
2022-12-12T02:21:36.303Z,88.56
2022-12-12T02:24:09.922Z,88.59
2022-12-12T02:26:50.342Z,88.53
2022-12-12T02:29:29.615Z,88.58
2022-12-12T02:32:08.720Z,88.66
2022-12-12T02:34:50.235Z,88.72
2022-12-12T02:37:24.728Z,88.52
2022-12-12T02:40:33.309Z,88.79
2022-12-12T02:43:02.954Z,88.90
2022-12-12T02:45:40.038Z,88.99
2022-12-12T02:48:17.112Z,88.93
2022-12-12T02:50:47.599Z,88.86
2022-12-12T02:53:19.148Z,88.89
2022-12-12T02:55:46.241Z,88.90
2022-12-12T02:58:14.632Z,88.80
2022-12-12T03:01:11.273Z,89.04
2022-12-12T03:04:03.694Z,89.35
2022-12-12T03:07:17.812Z,89.46
2022-12-12T03:10:06.234Z,89.47
2022-12-12T03:13:10.447Z,89.92
2022-12-12T03:15:41.932Z,89.93
2022-12-12T03:18:20.577Z,90.28
2022-12-12T03:21:10.610Z,90.42
2022-12-12T03:23:43.109Z,90.78
2022-12-12T03:26:33.541Z,90.51
2022-12-12T03:29:13.076Z,90.97
2022-12-12T03:31:45.178Z,90.64
2022-12-12T03:34:21.083Z,90.93
2022-12-12T03:37:05.742Z,90.81
2022-12-12T03:39:42.454Z,91.19
2022-12-12T03:42:15.792Z,91.38
2022-12-12T03:44:49.738Z,91.33
2022-12-12T03:47:24.995Z,91.84
2022-12-12T03:49:59.377Z,91.96
2022-12-12T03:52:33.836Z,91.84
2022-12-12T03:55:08.570Z,91.89
2022-12-12T03:57:51.299Z,91.83
2022-12-12T04:00:18.730Z,92.22
2022-12-12T04:03:06.065Z,92.18
2022-12-12T04:05:37.498Z,92.44
2022-12-12T04:08:13.107Z,92.67
2022-12-12T04:11:06.874Z,92.70
2022-12-12T04:13:53.586Z,92.35
2022-12-12T04:16:30.101Z,92.47
2022-12-12T04:19:46.083Z,92.47
2022-12-12T04:22:39.317Z,92.48
2022-12-12T04:25:26.248Z,92.27
2022-12-12T04:27:57.594Z,92.72
2022-12-12T04:30:28.029Z,92.68
2022-12-12T04:33:14.655Z,92.51
2022-12-12T04:35:48.801Z,92.39
2022-12-12T04:38:24.427Z,92.27
2022-12-12T04:40:55.601Z,92.39
2022-12-12T04:43:28.743Z,92.36
2022-12-12T04:46:05.037Z,92.46
2022-12-12T04:48:54.733Z,92.28
2022-12-12T04:51:27.097Z,92.92
2022-12-12T04:54:10.253Z,92.73
2022-12-12T04:56:39.681Z,92.48
2022-12-12T04:59:07.808Z,92.48
2022-12-12T05:01:53.802Z,92.86
2022-12-12T05:04:38.310Z,92.82
2022-12-12T05:07:15.555Z,92.69
2022-12-12T05:09:43.640Z,92.57
2022-12-12T05:12:11.554Z,92.46
2022-12-12T05:14:38.767Z,92.73
2022-12-12T05:17:12.033Z,92.71
2022-12-12T05:19:39.295Z,92.62
2022-12-12T05:22:06.326Z,92.93
2022-12-12T05:24:33.653Z,93.22
2022-12-12T05:27:00.801Z,93.10
2022-12-12T05:29:30.007Z,93.25
2022-12-12T05:31:56.978Z,93.43
2022-12-12T05:34:24.119Z,93.36
2022-12-12T05:36:51.245Z,93.78
2022-12-12T05:39:18.203Z,93.85
2022-12-12T05:41:46.204Z,93.82
2022-12-12T05:44:13.362Z,93.76
2022-12-12T05:46:40.366Z,93.80
2022-12-12T05:49:07.567Z,93.88
2022-12-12T05:51:34.685Z,93.94
2022-12-12T05:54:01.676Z,93.95
2022-12-12T05:56:28.822Z,93.48
2022-12-12T05:58:55.760Z,93.18
2022-12-12T06:01:22.947Z,93.09
2022-12-12T06:03:50.128Z,93.12
2022-12-12T06:06:17.345Z,92.92
2022-12-12T06:08:44.272Z,93.01
2022-12-12T06:11:12.781Z,92.88
2022-12-12T06:13:39.848Z,92.95
2022-12-12T06:16:08.905Z,93.04
2022-12-12T06:18:36.516Z,92.67
2022-12-12T06:21:05.812Z,92.26
2022-12-12T06:23:36.259Z,92.35
2022-12-12T06:26:04.259Z,91.88
2022-12-12T06:28:31.590Z,91.94
2022-12-12T06:30:59.406Z,91.84
2022-12-12T06:33:27.617Z,91.52
2022-12-12T06:36:02.978Z,91.04
2022-12-12T06:38:30.870Z,91.00
2022-12-12T06:40:58.466Z,91.11
2022-12-12T06:43:25.854Z,90.93
2022-12-12T06:45:52.840Z,90.70
2022-12-12T06:48:19.923Z,90.44
2022-12-12T06:50:46.910Z,90.25
2022-12-12T06:53:13.951Z,89.81
2022-12-12T06:55:43.119Z,88.79
2022-12-12T06:58:11.489Z,88.64
2022-12-12T07:00:38.503Z,88.87
2022-12-12T07:03:05.991Z,89.51
2022-12-12T07:05:34.535Z,89.87
2022-12-12T07:08:02.996Z,89.50
2022-12-12T07:10:30.556Z,89.09
2022-12-12T07:12:57.818Z,88.53
2022-12-12T07:15:24.725Z,87.97
2022-12-12T07:17:53.816Z,87.46
2022-12-12T07:20:21.012Z,87.19
2022-12-12T07:22:48.087Z,87.86
2022-12-12T07:25:15.566Z,88.26
2022-12-12T07:27:43.098Z,88.02
2022-12-12T07:30:10.650Z,87.03
2022-12-12T07:32:38.943Z,87.48
2022-12-12T07:35:06.119Z,87.31
2022-12-12T07:37:33.327Z,86.45
2022-12-12T07:40:00.572Z,86.06
2022-12-12T07:42:27.717Z,85.36
2022-12-12T07:44:54.787Z,85.66
2022-12-12T07:47:22.218Z,85.22
2022-12-12T07:49:49.212Z,85.43
2022-12-12T07:52:16.182Z,85.24
2022-12-12T07:54:44.166Z,84.73
2022-12-12T07:57:11.257Z,84.42
2022-12-12T07:59:38.515Z,84.70
2022-12-12T08:02:05.582Z,85.42
2022-12-12T08:04:33.250Z,85.07
2022-12-12T08:07:05.373Z,84.53
2022-12-12T08:09:36.596Z,84.54
2022-12-12T08:12:04.043Z,84.62
2022-12-12T08:14:31.114Z,83.98
2022-12-12T08:16:58.900Z,83.70
2022-12-12T08:19:26.500Z,83.98
2022-12-12T08:21:53.477Z,83.70
2022-12-12T08:24:20.594Z,83.46
2022-12-12T08:26:49.880Z,83.08
2022-12-12T08:29:16.826Z,82.56
2022-12-12T08:31:44.270Z,82.39
2022-12-12T08:34:11.447Z,82.07
2022-12-12T08:36:38.522Z,82.03
2022-12-12T08:39:08.563Z,80.93
2022-12-12T08:41:38.308Z,81.23
2022-12-12T08:44:06.730Z,80.67
2022-12-12T08:46:34.521Z,79.97
2022-12-12T08:49:01.703Z,80.50
2022-12-12T08:51:29.184Z,79.92
2022-12-12T08:53:56.486Z,79.95
2022-12-12T08:56:24.390Z,78.57
2022-12-12T08:58:52.082Z,79.69
2022-12-12T09:01:21.704Z,80.15
2022-12-12T09:03:49.116Z,80.93
2022-12-12T09:06:16.804Z,80.85
2022-12-12T09:08:45.698Z,78.83
2022-12-12T09:11:13.826Z,78.38
2022-12-12T09:13:41.327Z,78.75
2022-12-12T09:16:09.579Z,79.17
2022-12-12T09:18:37.460Z,78.59
2022-12-12T09:21:05.082Z,78.23
2022-12-12T09:23:32.093Z,78.32
2022-12-12T09:25:59.396Z,77.82
2022-12-12T09:28:26.971Z,77.59
2022-12-12T09:30:54.047Z,78.07
2022-12-12T09:33:21.176Z,77.68
2022-12-12T09:35:57.246Z,78.18
2022-12-12T09:38:24.373Z,78.18
2022-12-12T09:41:02.728Z,77.90
2022-12-12T09:43:47.532Z,78.57
2022-12-12T09:46:25.078Z,78.45
2022-12-12T09:48:52.340Z,78.76
2022-12-12T09:51:25.016Z,79.06
2022-12-12T09:53:52.270Z,78.86
2022-12-12T09:56:29.195Z,78.60
2022-12-12T09:59:07.107Z,77.12
2022-12-12T10:01:41.905Z,77.67
2022-12-12T10:04:30.389Z,77.79
2022-12-12T10:07:02.586Z,77.66
2022-12-12T10:09:57.740Z,78.26
2022-12-12T10:12:26.212Z,77.88
2022-12-12T10:14:59.036Z,77.02
2022-12-12T10:17:44.082Z,76.47
2022-12-12T10:20:21.188Z,76.50
2022-12-12T10:23:26.708Z,77.14
2022-12-12T10:26:08.909Z,77.19
2022-12-12T10:28:36.009Z,77.35
2022-12-12T10:31:35.163Z,77.13
2022-12-12T10:34:11.680Z,76.91
2022-12-12T10:37:08.901Z,77.44
2022-12-12T10:39:58.869Z,78.04
2022-12-12T10:42:29.080Z,79.13
2022-12-12T10:45:18.113Z,79.22
2022-12-12T10:47:45.776Z,79.92
2022-12-12T10:50:16.455Z,80.37
2022-12-12T10:52:43.417Z,80.44
2022-12-12T10:55:38.976Z,80.31
2022-12-12T10:58:06.763Z,79.76
2022-12-12T11:00:35.459Z,79.85
2022-12-12T11:03:27.573Z,79.53
2022-12-12T11:05:57.254Z,79.83
2022-12-12T11:08:32.229Z,80.38
2022-12-12T11:11:21.449Z,79.45
2022-12-12T11:13:56.254Z,79.38
2022-12-12T11:16:42.169Z,78.88
2022-12-12T11:19:19.925Z,78.29
2022-12-12T11:21:47.933Z,78.44
2022-12-12T11:24:18.448Z,78.31
2022-12-12T11:26:51.871Z,77.75
2022-12-12T11:29:50.108Z,78.28
2022-12-12T11:32:30.988Z,77.56
2022-12-12T11:35:03.089Z,77.82
2022-12-12T11:37:39.565Z,76.67
2022-12-12T11:40:19.948Z,76.15
2022-12-12T11:42:47.294Z,76.34
2022-12-12T11:49:47.207Z,76.78
2022-12-12T11:52:20.943Z,76.98
2022-12-12T11:54:48.705Z,76.81
2022-12-12T11:57:27.412Z,76.56
2022-12-12T12:00:13.011Z,76.44
2022-12-12T12:03:11.752Z,76.34
2022-12-12T12:06:19.562Z,76.17
2022-12-12T12:09:05.064Z,76.54
2022-12-12T12:11:32.196Z,76.95
2022-12-12T12:14:05.280Z,77.22
2022-12-12T12:16:44.401Z,76.94
2022-12-12T12:19:40.345Z,77.95
2022-12-12T12:22:28.883Z,77.56
2022-12-12T12:25:33.258Z,77.61
2022-12-12T12:28:38.586Z,76.11
2022-12-12T12:31:19.048Z,75.68
2022-12-12T12:34:14.380Z,75.46
2022-12-12T12:36:52.676Z,76.17
2022-12-12T12:39:42.242Z,76.25
2022-12-12T12:42:30.613Z,75.00
2022-12-12T12:45:21.934Z,74.94
2022-12-12T12:47:52.271Z,75.13
2022-12-12T12:50:24.255Z,75.52
2022-12-12T12:52:54.367Z,74.86
2022-12-12T12:55:26.902Z,74.99
2022-12-12T12:57:54.587Z,74.16
2022-12-12T13:00:24.808Z,73.73
2022-12-12T13:03:03.405Z,73.93
2022-12-12T13:05:36.947Z,74.27
2022-12-12T13:08:13.711Z,74.20
2022-12-12T13:10:52.040Z,73.89
2022-12-12T13:13:31.647Z,74.11
2022-12-12T13:16:01.339Z,73.87
2022-12-12T13:18:44.420Z,74.39
2022-12-12T13:21:24.440Z,74.02
2022-12-12T13:24:01.417Z,73.96
2022-12-12T13:26:40.910Z,74.29
2022-12-12T13:29:32.874Z,74.36
2022-12-12T13:32:28.416Z,74.49
2022-12-12T13:35:02.928Z,74.51
2022-12-12T13:37:33.351Z,74.59
2022-12-12T13:40:06.368Z,75.04
2022-12-12T13:43:05.509Z,74.58
2022-12-12T13:45:40.468Z,74.62
2022-12-12T13:48:25.734Z,73.99
2022-12-12T13:51:27.536Z,74.24
2022-12-12T13:54:12.117Z,74.65
2022-12-12T13:56:55.599Z,75.29
2022-12-12T13:59:22.711Z,75.34
2022-12-12T14:01:52.208Z,76.63
2022-12-12T14:04:42.053Z,76.78
2022-12-12T14:07:19.174Z,77.53
2022-12-12T14:09:55.977Z,77.97
2022-12-12T14:12:31.564Z,78.70
2022-12-12T14:15:04.821Z,79.03
2022-12-12T14:17:42.336Z,79.10
2022-12-12T14:20:29.482Z,80.05
2022-12-12T14:22:59.563Z,80.55
2022-12-12T14:25:36.397Z,80.41
2022-12-12T14:28:27.170Z,80.75
2022-12-12T14:30:57.617Z,81.08
2022-12-12T14:33:31.023Z,81.36
2022-12-12T14:36:17.574Z,81.61
2022-12-12T14:39:01.448Z,81.81
2022-12-12T14:41:35.446Z,81.63
2022-12-12T14:44:36.962Z,81.55
2022-12-12T14:46:55.100Z,81.88
2022-12-12T14:49:22.253Z,81.94
2022-12-12T14:51:52.299Z,81.13
2022-12-12T14:54:22.410Z,81.14
2022-12-12T14:56:56.671Z,81.49
2022-12-12T14:59:27.646Z,81.61
2022-12-12T15:02:00.853Z,81.68
2022-12-12T15:04:38.327Z,81.94
2022-12-12T15:07:21.363Z,81.68
2022-12-12T15:09:49.934Z,81.83
2022-12-12T15:12:21.002Z,82.37
2022-12-12T15:14:48.367Z,82.66
2022-12-12T15:17:34.736Z,83.05
2022-12-12T15:20:09.643Z,83.82
2022-12-12T15:22:48.820Z,85.54
2022-12-12T15:25:19.962Z,86.54
2022-12-12T15:27:55.756Z,86.49
2022-12-12T15:30:40.980Z,87.02
2022-12-12T15:33:17.558Z,86.83
2022-12-12T15:36:01.520Z,86.56
2022-12-12T15:38:30.094Z,86.25
2022-12-12T15:41:09.601Z,86.03
2022-12-12T15:43:43.516Z,85.70
2022-12-12T15:46:15.477Z,87.23
2022-12-12T15:48:44.242Z,87.06
2022-12-12T15:51:13.541Z,86.81
2022-12-12T15:53:49.146Z,86.46
2022-12-12T15:56:19.517Z,86.89
2022-12-12T15:58:53.763Z,86.67
2022-12-12T16:01:28.128Z,87.26
2022-12-12T16:04:21.095Z,87.08
2022-12-12T16:06:48.870Z,87.20
2022-12-12T16:09:18.886Z,86.75
2022-12-12T16:11:52.057Z,86.17
2022-12-12T16:14:42.657Z,85.94
2022-12-12T16:17:17.994Z,85.84
2022-12-12T16:19:55.907Z,85.62
2022-12-12T16:22:44.651Z,85.87
2022-12-12T16:25:22.931Z,85.75
2022-12-12T16:27:57.798Z,86.08
2022-12-12T16:30:26.509Z,86.52
2022-12-12T16:32:54.850Z,86.49
2022-12-12T16:35:24.734Z,86.03
2022-12-12T16:37:55.371Z,85.66
2022-12-12T16:40:23.467Z,85.80
2022-12-12T16:43:07.783Z,86.60
2022-12-12T16:45:38.476Z,86.87
2022-12-12T16:48:21.854Z,87.32
2022-12-12T16:50:51.043Z,87.13
2022-12-12T16:53:19.208Z,87.28
2022-12-12T16:55:49.426Z,87.81
2022-12-12T16:58:17.815Z,87.48
2022-12-12T17:00:45.346Z,88.81
2022-12-12T17:03:14.597Z,88.99
2022-12-12T17:05:42.847Z,89.24
2022-12-12T17:08:10.454Z,89.97
2022-12-12T17:10:38.116Z,89.23
2022-12-12T17:13:08.282Z,89.86
2022-12-12T17:15:35.541Z,90.41
2022-12-12T17:18:05.875Z,91.51
2022-12-12T17:20:37.429Z,91.72
2022-12-12T17:25:55.863Z,93.08
2022-12-12T17:28:28.214Z,94.33
2022-12-12T17:30:55.518Z,96.01
2022-12-12T17:33:23.181Z,99.35
2022-12-12T17:36:01.603Z,99.30
2022-12-12T17:38:30.683Z,99.07
2022-12-12T17:41:02.279Z,99.13
2022-12-12T17:43:29.478Z,99.85
2022-12-12T17:45:58.222Z,100.00
2022-12-12T17:48:31.574Z,100.00
2022-12-12T17:51:01.663Z,100.00
2022-12-12T17:53:38.420Z,100.00
2022-12-12T17:56:08.552Z,100.00
2022-12-12T17:58:38.134Z,100.00
2022-12-12T18:01:19.534Z,100.00
2022-12-12T18:03:48.152Z,100.00
2022-12-12T18:06:15.592Z,100.00
2022-12-12T18:08:47.628Z,100.00
2022-12-12T18:11:19.979Z,100.00
2022-12-12T18:13:50.144Z,100.00
2022-12-12T18:16:19.104Z,100.00
2022-12-12T18:18:46.570Z,100.00
2022-12-12T18:21:43.424Z,100.00
2022-12-12T18:24:06.831Z,100.00
2022-12-12T18:26:33.997Z,100.00
2022-12-12T18:29:03.991Z,100.00
2022-12-12T18:31:32.159Z,100.00
2022-12-12T18:33:59.503Z,100.00
2022-12-12T18:36:28.597Z,100.00
2022-12-12T18:38:57.314Z,100.00
2022-12-12T18:41:26.379Z,100.00
2022-12-12T18:43:54.491Z,100.00
2022-12-12T18:46:24.885Z,100.00
2022-12-12T18:48:52.410Z,100.00
2022-12-12T18:51:23.280Z,100.00
2022-12-12T18:53:52.917Z,100.00
2022-12-12T18:56:22.953Z,100.00
2022-12-12T18:58:52.009Z,100.00
2022-12-12T19:01:21.719Z,100.00
2022-12-12T19:03:51.284Z,100.00
2022-12-12T19:06:23.775Z,100.00
2022-12-12T19:08:51.777Z,100.00
2022-12-12T19:11:18.784Z,100.00
2022-12-12T19:13:47.616Z,100.00
2022-12-12T19:16:19.784Z,100.00
2022-12-12T19:18:47.653Z,100.00
2022-12-12T19:21:21.458Z,100.00
2022-12-12T19:23:50.452Z,100.00
2022-12-12T19:26:20.170Z,100.00
2022-12-12T19:28:47.839Z,100.00
2022-12-12T19:31:17.081Z,100.00
2022-12-12T19:33:46.298Z,100.00
2022-12-12T19:36:16.710Z,100.00
2022-12-12T19:38:45.351Z,100.00
2022-12-12T19:41:14.657Z,100.00
2022-12-12T19:43:42.897Z,100.00
2022-12-12T19:46:13.335Z,100.00
2022-12-12T19:48:41.723Z,100.00
2022-12-12T19:51:17.275Z,100.00
2022-12-12T19:53:47.085Z,100.00
2022-12-12T19:56:16.752Z,100.00
2022-12-12T19:58:44.375Z,100.00
2022-12-12T20:01:18.977Z,100.00
2022-12-12T20:03:54.318Z,99.94
2022-12-12T20:06:22.801Z,100.00
2022-12-12T20:08:51.308Z,100.00
2022-12-12T20:11:21.161Z,100.00
2022-12-12T20:13:50.852Z,100.00
2022-12-12T20:16:20.114Z,100.00
2022-12-12T20:18:49.803Z,100.00
2022-12-12T20:21:43.573Z,100.00
2022-12-12T20:24:08.103Z,100.00
2022-12-12T20:26:35.762Z,100.00
2022-12-12T20:29:03.380Z,100.00
2022-12-12T20:31:33.658Z,100.00
2022-12-12T20:34:00.855Z,100.00
2022-12-12T20:36:31.673Z,100.00
2022-12-12T20:38:59.732Z,100.00
2022-12-12T20:41:32.580Z,98.91
2022-12-12T20:44:00.566Z,99.42
2022-12-12T20:46:33.748Z,99.62
2022-12-12T20:49:03.162Z,96.62
2022-12-12T20:51:55.403Z,96.02
2022-12-12T20:54:21.546Z,97.78
2022-12-12T20:56:49.539Z,98.57
2022-12-12T20:59:16.432Z,96.90
2022-12-12T21:01:43.635Z,97.37
2022-12-12T21:04:11.284Z,96.95
2022-12-12T21:06:48.380Z,96.04
2022-12-12T21:09:23.119Z,96.10
2022-12-12T21:11:54.311Z,97.22
2022-12-12T21:14:21.414Z,97.98
2022-12-12T21:16:48.622Z,97.21
2022-12-12T21:19:17.349Z,96.41
2022-12-12T21:21:45.892Z,95.67
2022-12-12T21:24:14.899Z,95.31
2022-12-12T21:26:42.878Z,95.80
2022-12-12T21:29:10.539Z,94.72
2022-12-12T21:31:50.500Z,94.06
2022-12-12T21:34:21.930Z,94.85
2022-12-12T21:36:53.886Z,94.43
2022-12-12T21:39:23.659Z,94.19
2022-12-12T21:41:51.510Z,94.94
2022-12-12T21:44:20.254Z,94.61
2022-12-12T21:46:47.615Z,94.23
2022-12-12T21:49:26.869Z,93.07
2022-12-12T21:52:00.334Z,93.29
2022-12-12T21:54:32.998Z,93.61
2022-12-12T21:57:00.689Z,93.13
2022-12-12T21:59:29.161Z,92.15
2022-12-12T22:01:58.174Z,91.71
2022-12-12T22:04:25.783Z,90.85
2022-12-12T22:06:52.883Z,90.58
2022-12-12T22:09:21.048Z,91.92
2022-12-12T22:11:52.204Z,91.57
2022-12-12T22:14:30.976Z,91.78
2022-12-12T22:16:58.120Z,91.73
2022-12-12T22:19:25.260Z,91.81
2022-12-12T22:21:52.178Z,91.52
2022-12-12T22:24:19.289Z,89.53
2022-12-12T22:26:49.290Z,88.36
2022-12-12T22:29:20.262Z,89.97
2022-12-12T22:31:50.349Z,89.17
2022-12-12T22:34:20.924Z,89.88
2022-12-12T22:36:48.473Z,90.19
2022-12-12T22:39:21.503Z,89.76
2022-12-12T22:41:50.376Z,90.30
2022-12-12T22:44:19.710Z,90.55
2022-12-12T22:46:48.751Z,90.43
2022-12-12T22:49:20.123Z,90.04
2022-12-12T22:51:47.780Z,89.72
2022-12-12T22:54:15.572Z,88.83
2022-12-12T22:56:43.950Z,89.45
2022-12-12T22:59:13.492Z,87.98
2022-12-12T23:01:41.781Z,88.12
2022-12-12T23:04:14.512Z,88.94
2022-12-12T23:06:43.085Z,87.63
2022-12-12T23:09:20.872Z,88.85
2022-12-12T23:11:49.925Z,89.45
2022-12-12T23:14:19.864Z,89.64
2022-12-12T23:16:47.416Z,89.18
2022-12-12T23:19:17.494Z,88.53
2022-12-12T23:21:45.448Z,89.09
2022-12-12T23:24:12.978Z,87.17
2022-12-12T23:26:40.177Z,88.08
2022-12-12T23:29:09.731Z,88.23
2022-12-12T23:31:38.530Z,86.90
2022-12-12T23:34:09.499Z,86.66
2022-12-12T23:36:36.724Z,85.96
2022-12-12T23:39:08.041Z,86.60
2022-12-12T23:41:36.755Z,84.30
2022-12-12T23:44:05.116Z,85.01
2022-12-12T23:46:32.986Z,85.68
2022-12-12T23:49:14.478Z,84.52
2022-12-12T23:51:46.956Z,82.88
2022-12-12T23:54:20.092Z,84.61
2022-12-12T23:56:48.351Z,84.41
2022-12-12T23:59:18.189Z,84.96
